Terminal Aerodrome Forecast
Issued by NWS Wilmington, OH

Current Version | Previous Version | Graphics & Text | Print | Product List | Glossary On
Versions: 1 2 3 4 5 6 7 8 9 10 11 12 13 14 15
000
FTUS41 KILN 242300
TAFDAY
TAF
KDAY 242332Z 2500/2524 24016G23KT P6SM SCT060
     FM250200 24015KT P6SM VCSH OVC040
      TEMPO 2504/2506 BKN025
     FM250800 27009KT P6SM SCT250
     FM251400 VRB04KT P6SM BKN250
     FM252000 04005KT P6SM BKN250=

USA.gov is the U.S. government's official web portal to all federal, state and local government web resources and services.